Vetal, South Dakota
Current Conditions -  °F | °C
As of 2:52 PM on Thursday 18 Dec 2014 (Local Time) from KIEN Reporting Station
Clear Clear  
Wind Chill: 32°   Ceiling: Unl
Heat Index: 37°   Visibility: 10mi
Dew Point: 24°   Wind: 7mph
Humidity: 59%   Direction: 250°WSW
Pressure: 30.01"   Gusts: NA
Location:  43.2013°N, 101.679°W
Report Text: KIEN 182152Z AUTO 25006KT 10SM CLR 03/M04 A3001 RMK AO2 SLP196 T00281044
Loading
Personal Weather Stations






























Interactive Weather Map New forecast layout! Learn more

10-Day Weather Forecast

Advertisements
Track Severe Weather on mobile